Time;durP1;ratioP1;P1;durP2;ratioP2;P2;SDS_P1;SDS_P2;PMS_P1;PMS_P2;Temp;Humidity;BMP_temperature;BMP_pressure;BME280_temperature;BME280_humidity;BME280_pressure;Samples;Min_cycle;Max_cycle;Signal;HPM_P1;HPM_P2
2022/07/03 00:00:23;;;;;;;3.47;3.17;;;;;;;16.99;97.66;100236.59;5069943;28;20497;-77
2022/07/03 00:02:48;;;;;;;6.88;3.72;;;;;;;16.96;98.00;100240.25;5069932;28;20078;-77
2022/07/03 00:05:14;;;;;;;6.65;3.72;;;;;;;16.94;98.02;100224.59;5069600;28;20440;-77
2022/07/03 00:07:39;;;;;;;5.30;3.60;;;;;;;16.92;98.24;100234.34;5069823;28;20044;-77
2022/07/03 00:10:05;;;;;;;5.05;3.72;;;;;;;16.91;98.48;100243.19;5069309;28;20072;-77
2022/07/03 00:12:31;;;;;;;4.32;3.30;;;;;;;16.88;98.44;100232.84;5069785;28;20032;-77
2022/07/03 00:14:56;;;;;;;4.15;3.63;;;;;;;16.87;98.86;100238.22;5052694;28;20127;-77
2022/07/03 00:17:22;;;;;;;4.70;3.50;;;;;;;16.83;98.73;100229.66;5069691;28;20036;-77
2022/07/03 00:19:48;;;;;;;4.13;3.53;;;;;;;16.81;99.03;100228.94;5069720;28;20025;-77
2022/07/03 00:22:14;;;;;;;3.80;3.13;;;;;;;16.83;99.04;100231.47;5069483;28;20036;-77
2022/07/03 00:24:51;;;;;;;4.57;3.10;;;;;;;16.77;98.99;100229.19;5069925;28;20071;-76
2022/07/03 00:27:19;;;;;;;4.47;3.63;;;;;;;16.73;99.19;100231.19;5069340;28;20090;-77
2022/07/03 00:29:46;;;;;;;6.57;3.90;;;;;;;16.74;99.83;100222.38;5088330;28;20040;-77
2022/07/03 00:32:14;;;;;;;4.82;3.78;;;;;;;16.73;100.00;100240.84;5073770;28;20113;-76
2022/07/03 00:34:41;;;;;;;4.10;3.10;;;;;;;16.67;99.92;100232.38;5092278;28;20024;-76
2022/07/03 00:37:09;;;;;;;6.55;3.67;;;;;;;16.69;100.00;100243.66;5092054;28;20055;-76
2022/07/03 00:39:37;;;;;;;4.05;3.58;;;;;;;16.64;100.00;100234.34;5092086;28;20110;-77
2022/07/03 00:42:04;;;;;;;3.47;3.17;;;;;;;16.64;100.00;100237.84;5073687;28;20024;-77
2022/07/03 00:44:32;;;;;;;5.45;3.70;;;;;;;16.59;100.00;100226.75;5092402;28;20043;-76
2022/07/03 00:46:59;;;;;;;4.22;3.50;;;;;;;16.60;100.00;100232.84;5090942;28;20024;-76
2022/07/03 00:49:25;;;;;;;4.97;3.28;;;;;;;16.56;100.00;100232.22;5091951;28;20025;-76
2022/07/03 00:51:52;;;;;;;3.90;3.15;;;;;;;16.51;100.00;100233.44;5092124;28;20035;-77
2022/07/03 00:54:21;;;;;;;3.83;3.15;;;;;;;16.47;100.00;100222.25;5091933;28;20934;-76
2022/07/03 00:56:51;;;;;;;6.63;3.90;;;;;;;16.50;100.00;100231.75;5092088;28;20107;-76
2022/07/03 00:59:17;;;;;;;4.25;3.65;;;;;;;16.49;100.00;100228.28;5091625;28;20519;-76
2022/07/03 01:01:45;;;;;;;4.00;2.92;;;;;;;16.45;100.00;100225.00;5091900;28;20031;-76
2022/07/03 01:04:21;;;;;;;4.65;3.67;;;;;;;16.46;100.00;100213.53;5091541;28;20423;-77
2022/07/03 01:07:00;;;;;;;4.35;3.67;;;;;;;16.42;100.00;100208.56;5091757;28;20115;-76
2022/07/03 01:09:41;;;;;;;5.00;3.50;;;;;;;16.38;100.00;100210.53;5092061;28;20111;-76
2022/07/03 01:12:19;;;;;;;4.88;3.53;;;;;;;16.33;100.00;100209.97;5091491;28;20399;-76
2022/07/03 01:15:11;;;;;;;4.88;3.00;;;;;;;16.34;100.00;100216.06;5091716;28;20043;-76
2022/07/03 01:17:48;;;;;;;3.80;3.35;;;;;;;16.28;100.00;100217.28;5091915;28;20364;-77
2022/07/03 01:20:20;;;;;;;6.00;3.65;;;;;;;16.25;100.00;100216.63;5091842;28;20024;-77
2022/07/03 01:22:59;;;;;;;3.75;2.90;;;;;;;16.18;100.00;100196.00;5091672;28;20030;-77
2022/07/03 01:25:38;;;;;;;5.18;3.45;;;;;;;16.21;100.00;100208.94;5091627;28;20039;-77
2022/07/03 01:28:16;;;;;;;5.97;3.10;;;;;;;16.19;100.00;100210.81;5091584;28;20032;-77
2022/07/03 01:30:44;;;;;;;5.38;3.22;;;;;;;16.09;100.00;100191.28;5073616;28;20444;-77
2022/07/03 01:33:22;;;;;;;3.70;3.40;;;;;;;16.12;100.00;100187.63;5091384;28;20036;-77
2022/07/03 01:36:07;;;;;;;4.00;3.50;;;;;;;16.16;100.00;100192.59;5091572;28;20107;-77
2022/07/03 01:38:39;;;;;;;4.22;3.28;;;;;;;16.13;100.00;100192.78;5091724;28;20028;-77
2022/07/03 01:41:09;;;;;;;4.88;3.50;;;;;;;16.10;100.00;100192.16;5091377;28;20031;-77
2022/07/03 01:43:38;;;;;;;3.47;3.17;;;;;;;16.06;100.00;100188.00;5091450;28;20490;-77
2022/07/03 01:46:04;;;;;;;4.47;3.10;;;;;;;15.93;100.00;100167.72;5091103;28;20031;-77
2022/07/03 01:48:32;;;;;;;4.20;3.17;;;;;;;15.95;100.00;100189.50;5091737;28;20024;-77
2022/07/03 01:50:58;;;;;;;4.55;3.15;;;;;;;15.86;100.00;100174.28;5091745;28;20043;-77
2022/07/03 01:53:27;;;;;;;3.70;3.40;;;;;;;15.90;100.00;100178.41;5091592;28;20040;-77
2022/07/03 01:55:57;;;;;;;4.80;3.55;;;;;;;15.84;100.00;100172.69;5091379;28;20475;-77
2022/07/03 01:58:22;;;;;;;5.23;3.57;;;;;;;15.79;100.00;100165.06;5094114;28;20113;-77
2022/07/03 02:01:02;;;;;;;4.30;3.90;;;;;;;15.81;100.00;100183.38;5094859;28;20309;-77
2022/07/03 02:03:30;;;;;;;5.17;3.10;;;;;;;15.79;100.00;100182.63;5095069;28;20027;-77
2022/07/03 02:06:12;;;;;;;6.32;4.13;;;;;;;15.80;100.00;100181.69;5095170;28;20133;-77
2022/07/03 02:09:01;;;;;;;6.10;3.85;;;;;;;15.78;100.00;100170.44;5094900;28;20028;-77
2022/07/03 02:11:28;;;;;;;4.55;3.80;;;;;;;15.75;100.00;100173.22;5094640;28;20072;-76
2022/07/03 02:13:53;;;;;;;3.97;3.58;;;;;;;15.71;100.00;100165.53;5095002;28;20024;-77
2022/07/03 02:16:22;;;;;;;4.50;3.30;;;;;;;15.70;100.00;100171.72;5094530;28;20042;-77
2022/07/03 02:18:54;;;;;;;5.53;4.30;;;;;;;15.69;100.00;100166.56;5094561;28;20048;-77
2022/07/03 02:21:20;;;;;;;4.20;3.78;;;;;;;15.69;100.00;100170.03;5076011;28;20072;-76
2022/07/03 02:23:54;;;;;;;4.15;3.75;;;;;;;15.68;100.00;100165.75;5094477;28;20028;-77
2022/07/03 02:26:25;;;;;;;4.70;3.70;;;;;;;15.61;100.00;100150.41;5094290;28;20050;-77
2022/07/03 02:28:54;;;;;;;;;;;;;;;15.65;100.00;100162.44;5094916;28;20028;-77
2022/07/03 02:31:23;;;;;;;4.57;3.67;;;;;;;15.63;100.00;100159.88;5094217;28;19918;-77
2022/07/03 02:33:55;;;;;;;5.53;3.83;;;;;;;15.63;100.00;100161.63;5094315;28;20046;-77
2022/07/03 02:36:23;;;;;;;4.53;3.72;;;;;;;15.59;100.00;100166.25;5094222;28;20021;-77
2022/07/03 02:38:53;;;;;;;4.53;3.33;;;;;;;15.58;100.00;100171.56;5094344;28;20109;-77
2022/07/03 02:41:29;;;;;;;3.97;3.63;;;;;;;15.53;100.00;100160.50;5075933;28;20028;-77
2022/07/03 02:44:23;;;;;;;6.20;3.88;;;;;;;15.55;100.00;100177.00;5094125;28;20020;-77
2022/07/03 02:47:10;;;;;;;4.32;3.95;;;;;;;15.51;100.00;100178.16;5093930;28;20417;-77
2022/07/03 02:49:48;;;;;;;3.75;3.45;;;;;;;15.48;100.00;100172.13;5094155;28;20028;-77
2022/07/03 02:52:38;;;;;;;5.38;3.70;;;;;;;15.46;100.00;100166.13;5093756;28;20082;-77
2022/07/03 02:55:22;;;;;;;5.50;4.15;;;;;;;15.44;100.00;100162.72;5094152;28;20024;-77
2022/07/03 02:57:57;;;;;;;5.88;4.65;;;;;;;15.40;100.00;100163.84;5093955;28;20020;-77
2022/07/03 03:00:24;;;;;;;3.88;3.42;;;;;;;15.37;100.00;100160.56;5093522;28;20111;-76
2022/07/03 03:02:49;;;;;;;4.55;4.10;;;;;;;15.44;100.00;100177.66;5093774;28;20023;-77
2022/07/03 03:05:16;;;;;;;4.35;3.80;;;;;;;15.40;100.00;100165.63;5075423;28;20036;-77
2022/07/03 03:08:00;;;;;;;4.38;3.85;;;;;;;15.42;100.00;100167.25;5093868;28;20024;-77
2022/07/03 03:10:26;;;;;;;3.55;3.25;;;;;;;15.41;100.00;100170.78;5093082;28;20613;-77
2022/07/03 03:13:19;;;;;;;3.63;3.33;;;;;;;15.44;100.00;100167.16;5093716;28;20070;-77
2022/07/03 03:16:04;;;;;;;3.63;3.17;;;;;;;15.46;100.00;100160.88;5030903;28;20037;-77
2022/07/03 03:18:31;;;;;;;4.03;3.58;;;;;;;15.45;100.00;100163.56;5030666;28;20033;-77
2022/07/03 03:20:59;;;;;;;4.28;3.53;;;;;;;15.41;100.00;100154.19;5014062;28;20537;-77
2022/07/03 03:23:33;;;;;;;5.95;3.88;;;;;;;15.49;100.00;100165.09;5030557;28;20113;-77
2022/07/03 03:25:59;;;;;;;5.95;4.40;;;;;;;15.50;100.00;100156.28;5030616;28;20536;-77
2022/07/03 03:28:25;;;;;;;4.05;3.65;;;;;;;15.54;100.00;100164.81;5030364;28;20029;-77
2022/07/03 03:30:51;;;;;;;3.95;3.65;;;;;;;15.56;100.00;100165.59;5030523;28;20037;-77
2022/07/03 03:33:17;;;;;;;4.30;3.90;;;;;;;15.60;100.00;100160.06;5030602;28;20045;-76
2022/07/03 03:35:42;;;;;;;3.63;3.33;;;;;;;15.65;100.00;100159.81;5030628;28;20021;-76
2022/07/03 03:38:08;;;;;;;4.55;3.67;;;;;;;15.69;100.00;100151.66;5030320;28;20033;-77
2022/07/03 03:40:34;;;;;;;5.95;3.60;;;;;;;15.77;100.00;100159.09;5030343;28;20088;-77
2022/07/03 03:43:01;;;;;;;4.00;3.53;;;;;;;15.83;100.00;100158.72;5030278;28;20608;-76
2022/07/03 03:45:27;;;;;;;5.53;3.70;;;;;;;15.93;100.00;100166.91;5030198;28;20060;-77
2022/07/03 03:47:53;;;;;;;4.97;3.80;;;;;;;15.96;100.00;100151.75;5030298;28;20477;-77
2022/07/03 03:50:19;;;;;;;4.20;3.80;;;;;;;16.03;100.00;100154.88;5030360;28;20056;-77
2022/07/03 03:52:44;;;;;;;5.90;4.57;;;;;;;16.01;100.00;100137.50;5050111;28;20468;-77
2022/07/03 03:55:10;;;;;;;4.03;3.63;;;;;;;16.10;100.00;100150.94;5092492;28;20479;-77
2022/07/03 03:57:36;;;;;;;7.85;4.40;;;;;;;16.17;100.00;100157.50;5092733;28;20040;-76
2022/07/03 04:00:03;;;;;;;4.35;3.95;;;;;;;16.23;100.00;100144.94;5074526;28;20478;-76
2022/07/03 04:02:28;;;;;;;6.15;4.38;;;;;;;16.30;100.00;100144.44;5092275;28;20060;-76
2022/07/03 04:04:53;;;;;;;4.75;4.35;;;;;;;16.40;100.00;100142.09;5092596;28;20115;-77
2022/07/03 04:07:19;;;;;;;11.07;5.47;;;;;;;16.44;100.00;100141.81;5092427;28;20039;-77
2022/07/03 04:09:45;;;;;;;6.07;4.75;;;;;;;16.54;100.00;100144.69;5092434;28;20102;-77
2022/07/03 04:12:11;;;;;;;9.85;5.32;;;;;;;16.78;100.00;100147.56;5073900;28;20094;-77
2022/07/03 04:14:36;;;;;;;6.68;5.05;;;;;;;17.04;100.00;100150.31;5092600;28;20028;-77
2022/07/03 04:17:02;;;;;;;7.47;4.80;;;;;;;17.52;100.00;100150.59;5092587;28;20028;-77
2022/07/03 04:19:28;;;;;;;9.13;5.03;;;;;;;18.09;100.00;100152.88;5092214;28;20054;-77
2022/07/03 04:21:53;;;;;;;6.22;5.63;;;;;;;18.55;100.00;100146.97;5092439;28;20478;-77
2022/07/03 04:24:19;;;;;;;6.97;4.93;;;;;;;18.89;99.13;100146.25;5092092;28;20028;-77
2022/07/03 04:26:44;;;;;;;7.38;4.82;;;;;;;19.11;97.84;100134.94;5092357;28;20028;-77
2022/07/03 04:29:10;;;;;;;6.28;5.43;;;;;;;19.84;94.37;100143.56;5092181;28;20065;-77
2022/07/03 04:31:36;;;;;;;6.82;5.88;;;;;;;20.64;89.23;100152.19;5091926;28;20028;-77
2022/07/03 04:34:01;;;;;;;6.88;4.40;;;;;;;21.34;86.81;100142.97;5092090;28;20024;-77
2022/07/03 04:36:27;;;;;;;7.82;5.50;;;;;;;21.76;84.11;100150.06;5073737;28;20111;-77
2022/07/03 04:38:52;;;;;;;9.02;5.03;;;;;;;21.70;83.22;100156.75;5092121;28;20460;-77
2022/07/03 04:41:18;;;;;;;5.47;4.32;;;;;;;21.76;83.60;100140.31;5091792;28;20028;-77
2022/07/03 04:43:43;;;;;;;7.28;5.63;;;;;;;21.79;81.62;100140.03;5092180;28;20020;-77
2022/07/03 04:46:09;;;;;;;6.80;4.80;;;;;;;21.96;82.26;100143.91;5092078;28;20028;-77
2022/07/03 04:48:34;;;;;;;5.43;4.88;;;;;;;22.16;80.72;100151.00;5091685;28;20036;-77
2022/07/03 04:51:00;;;;;;;5.18;4.50;;;;;;;22.65;80.25;100156.44;5073835;28;20103;-77
2022/07/03 04:53:25;;;;;;;8.90;4.18;;;;;;;23.96;75.48;100153.34;5091725;28;20115;-77
2022/07/03 04:55:51;;;;;;;5.90;4.13;;;;;;;25.28;69.73;100154.69;5091828;28;20418;-77
2022/07/03 04:58:19;;;;;;;6.35;4.10;;;;;;;25.87;66.82;100164.69;5091869;28;20666;-77
2022/07/03 05:00:45;;;;;;;5.95;4.93;;;;;;;25.12;66.93;100163.41;5092039;28;20414;-77
2022/07/03 05:03:12;;;;;;;7.38;4.75;;;;;;;24.51;69.25;100164.91;5091921;28;20086;-77
2022/07/03 05:05:37;;;;;;;7.75;4.57;;;;;;;24.15;69.75;100154.13;5091835;28;20454;-78
2022/07/03 05:08:03;;;;;;;7.07;5.30;;;;;;;24.31;69.50;100160.63;5091615;28;20063;-77
2022/07/03 05:10:28;;;;;;;4.28;3.88;;;;;;;24.13;70.70;100158.75;5091555;28;20117;-78
2022/07/03 05:12:54;;;;;;;4.20;3.80;;;;;;;24.54;69.67;100156.63;5091906;28;20081;-77
2022/07/03 05:15:19;;;;;;;3.80;3.45;;;;;;;25.33;66.37;100129.28;5091505;28;20043;-78
2022/07/03 05:17:45;;;;;;;4.80;3.97;;;;;;;26.86;62.18;100153.41;5091788;28;20458;-78
2022/07/03 05:20:29;;;;;;;4.13;3.67;;;;;;;27.21;59.66;100155.97;5092020;28;20522;-77
2022/07/03 05:23:00;;;;;;;9.80;4.45;;;;;;;27.27;58.92;100158.00;5091735;28;20089;-78
2022/07/03 05:25:27;;;;;;;5.53;3.90;;;;;;;27.04;60.11;100145.25;5091435;28;20056;-77
2022/07/03 05:27:53;;;;;;;5.25;3.30;;;;;;;27.03;61.04;100156.94;5091663;28;20023;-77
2022/07/03 05:30:20;;;;;;;4.97;3.83;;;;;;;26.79;60.64;100143.53;5091447;28;20028;-78
2022/07/03 05:32:45;;;;;;;4.50;2.90;;;;;;;26.34;61.95;100145.56;5093784;28;20063;-77
2022/07/03 05:35:11;;;;;;;4.45;3.33;;;;;;;26.53;62.26;100138.31;5095401;28;20457;-77
2022/07/03 05:37:37;;;;;;;5.57;2.85;;;;;;;26.10;62.48;100142.78;5095502;28;20028;-78
2022/07/03 05:40:04;;;;;;;5.47;4.20;;;;;;;25.73;62.55;100137.72;5095578;28;20520;-78
2022/07/03 05:42:29;;;;;;;3.30;3.00;;;;;;;25.60;64.29;100149.63;5095376;28;20054;-78
2022/07/03 05:44:55;;;;;;;7.65;4.40;;;;;;;25.39;64.08;100146.47;5095265;28;20511;-78
2022/07/03 05:47:20;;;;;;;3.50;3.20;;;;;;;25.32;64.88;100151.56;5094943;28;20024;-78
2022/07/03 05:49:45;;;;;;;4.00;3.30;;;;;;;25.11;65.79;100146.59;5095079;28;20487;-77
2022/07/03 05:52:11;;;;;;;4.50;3.83;;;;;;;24.77;66.06;100157.03;5095260;28;20104;-77
2022/07/03 05:54:36;;;;;;;4.00;3.30;;;;;;;24.96;66.70;100136.59;5095079;28;20039;-78
2022/07/03 05:57:02;;;;;;;3.80;3.50;;;;;;;25.48;65.97;100148.19;5095135;28;20024;-77
2022/07/03 05:59:27;;;;;;;4.00;3.60;;;;;;;25.56;64.94;100153.59;5094588;28;20047;-79
2022/07/03 06:01:53;;;;;;;4.13;3.80;;;;;;;25.30;65.31;100134.06;5094924;28;20065;-79
2022/07/03 06:04:18;;;;;;;5.70;4.70;;;;;;;25.93;63.72;100147.19;5094528;28;20028;-79
2022/07/03 06:06:43;;;;;;;5.70;3.67;;;;;;;26.53;62.84;100146.31;5094996;28;20028;-79
2022/07/03 06:09:09;;;;;;;6.30;4.72;;;;;;;25.91;63.26;100149.19;5094963;28;20035;-78
2022/07/03 06:11:34;;;;;;;5.18;4.68;;;;;;;25.94;63.03;100150.72;5094280;28;20044;-79
2022/07/03 06:14:00;;;;;;;7.10;5.50;;;;;;;25.21;64.90;100151.84;5094799;28;20032;-79
2022/07/03 06:16:25;;;;;;;5.75;5.18;;;;;;;25.42;65.41;100148.84;5094715;28;20107;-79
2022/07/03 06:18:50;;;;;;;6.78;4.13;;;;;;;25.21;65.48;100153.66;5094833;28;20024;-79
2022/07/03 06:21:16;;;;;;;7.88;5.13;;;;;;;24.86;66.39;100144.63;5094521;28;20086;-79
2022/07/03 06:23:41;;;;;;;5.63;4.97;;;;;;;24.52;68.16;100145.25;5094134;28;20107;-79
2022/07/03 06:26:07;;;;;;;5.20;4.65;;;;;;;25.04;66.86;100142.81;5094562;28;20131;-79
2022/07/03 06:28:32;;;;;;;6.40;5.35;;;;;;;25.78;64.47;100143.44;5094147;28;20020;-79
2022/07/03 06:30:58;;;;;;;6.90;4.78;;;;;;;28.25;58.44;100139.94;5094458;28;20039;-79
2022/07/03 06:33:23;;;;;;;5.80;4.72;;;;;;;30.41;51.08;100141.34;5094118;28;20102;-79
2022/07/03 06:35:49;;;;;;;4.40;4.00;;;;;;;30.87;47.34;100133.00;5094690;28;20046;-79
2022/07/03 06:38:14;;;;;;;7.93;4.72;;;;;;;32.48;42.60;100134.78;5094413;28;20016;-79
2022/07/03 06:40:40;;;;;;;4.30;3.90;;;;;;;34.33;36.71;100132.28;5075914;28;20036;-76
2022/07/03 06:43:05;;;;;;;4.10;3.50;;;;;;;34.74;34.34;100135.41;5093715;28;20434;-79
2022/07/03 06:45:31;;;;;;;5.10;3.53;;;;;;;34.96;34.12;100133.19;5093511;28;20494;-79
2022/07/03 06:47:56;;;;;;;3.72;3.40;;;;;;;36.57;31.29;100139.53;5094028;28;20379;-79
2022/07/03 06:50:21;;;;;;;3.75;2.70;;;;;;;37.72;30.02;100132.94;5093687;28;20024;-79
2022/07/03 06:52:47;;;;;;;3.63;2.80;;;;;;;38.27;28.49;100129.78;5094282;28;20459;-79
2022/07/03 06:55:13;;;;;;;3.50;2.83;;;;;;;38.84;26.91;100129.78;5094150;28;20039;-79
2022/07/03 06:57:38;;;;;;;3.38;2.50;;;;;;;40.55;25.90;100135.56;5094090;28;20031;-78
2022/07/03 07:00:04;;;;;;;5.30;3.33;;;;;;;38.54;26.10;100130.03;5093881;28;20031;-77
2022/07/03 07:02:30;;;;;;;2.63;2.40;;;;;;;39.19;26.85;100128.75;5093457;28;20039;-78
2022/07/03 07:04:55;;;;;;;4.68;3.20;;;;;;;40.19;23.84;100117.91;5093555;28;20024;-78
2022/07/03 07:07:21;;;;;;;3.78;2.92;;;;;;;39.66;25.43;100125.69;5093510;28;20406;-78
2022/07/03 07:09:46;;;;;;;3.30;2.88;;;;;;;41.14;22.98;100120.00;5093723;28;20035;-78
2022/07/03 07:12:11;;;;;;;3.28;2.90;;;;;;;40.51;24.12;100126.19;5093586;28;20117;-78
2022/07/03 07:14:37;;;;;;;3.50;3.20;;;;;;;41.23;22.86;100119.50;5075110;28;20024;-78
2022/07/03 07:17:03;;;;;;;2.97;2.50;;;;;;;42.36;21.67;100114.38;5093438;28;20060;-78
2022/07/03 07:19:28;;;;;;;4.90;2.60;;;;;;;43.26;20.73;100102.94;5093065;28;20032;-78
2022/07/03 07:21:54;;;;;;;2.90;2.42;;;;;;;43.31;19.30;100102.94;5093324;28;20497;-78
2022/07/03 07:24:19;;;;;;;5.63;2.60;;;;;;;42.98;19.23;100103.50;5093348;28;20028;-76
2022/07/03 07:26:44;;;;;;;4.32;3.45;;;;;;;40.83;21.43;100102.47;5093121;28;20110;-78
2022/07/03 07:29:10;;;;;;;2.72;2.53;;;;;;;42.13;20.68;100103.88;5093530;28;20020;-78
2022/07/03 07:31:35;;;;;;;2.53;2.25;;;;;;;41.08;21.29;100092.88;5093015;28;20116;-76
2022/07/03 07:34:04;;;;;;;2.65;2.45;;;;;;;38.85;23.66;100085.16;5093080;28;20051;-78
2022/07/03 07:36:29;;;;;;;2.87;2.57;;;;;;;37.27;25.86;100090.03;5092831;28;20403;-78
2022/07/03 07:38:55;;;;;;;2.88;2.50;;;;;;;39.30;23.07;100073.34;5093185;28;20024;-78
2022/07/03 07:41:20;;;;;;;2.30;2.10;;;;;;;41.59;20.62;100077.66;5092961;28;20102;-78
2022/07/03 07:43:46;;;;;;;2.45;2.25;;;;;;;39.14;22.26;100080.44;5092771;28;20056;-78
2022/07/03 07:46:11;;;;;;;2.83;2.63;;;;;;;36.13;25.77;100076.47;5092865;28;20020;-77
2022/07/03 07:48:37;;;;;;;2.60;2.40;;;;;;;33.43;29.32;100072.63;5092593;28;20066;-78
2022/07/03 07:51:02;;;;;;;4.82;3.05;;;;;;;32.57;32.31;100083.34;5093021;28;20383;-77
2022/07/03 07:53:28;;;;;;;2.58;2.38;;;;;;;33.53;31.07;100062.25;5092475;28;20070;-77
2022/07/03 07:55:53;;;;;;;2.70;2.50;;;;;;;33.79;29.75;100077.56;5092437;28;20020;-78
2022/07/03 07:58:18;;;;;;;3.00;2.80;;;;;;;30.66;34.54;100076.50;5093045;28;20032;-77
2022/07/03 08:06:14;;;;;;;3.67;2.47;;;;;;;35.92;26.83;100072.31;5092729;28;20050;-77
2022/07/03 08:08:39;;;;;;;1.85;1.75;;;;;;;34.32;27.49;100087.38;5092437;28;20460;-78
2022/07/03 08:11:04;;;;;;;2.75;2.15;;;;;;;35.64;26.24;100078.25;5092440;28;20052;-78
2022/07/03 08:13:30;;;;;;;2.85;2.25;;;;;;;33.58;28.38;100080.53;5092265;28;20024;-78
2022/07/03 08:15:55;;;;;;;2.83;2.35;;;;;;;30.87;32.54;100075.69;5092427;28;20028;-77
2022/07/03 08:18:21;;;;;;;7.15;2.60;;;;;;;28.81;37.48;100067.44;5092561;28;20088;-77
2022/07/03 08:20:46;;;;;;;2.53;2.33;;;;;;;27.92;39.45;100071.44;5092220;28;20020;-77
2022/07/03 08:23:12;;;;;;;2.30;2.10;;;;;;;28.18;40.31;100063.13;5092442;28;20031;-77
2022/07/03 08:25:37;;;;;;;2.80;2.60;;;;;;;27.81;41.91;100073.50;5092127;28;20031;-77
2022/07/03 08:28:02;;;;;;;4.72;2.75;;;;;;;26.91;42.23;100067.38;5092056;28;20375;-77
2022/07/03 08:30:28;;;;;;;2.63;2.42;;;;;;;26.50;43.12;100051.31;5092219;28;20031;-77
2022/07/03 08:32:56;;;;;;;2.63;2.10;;;;;;;26.76;43.52;100066.38;5092409;28;20415;-77
2022/07/03 08:35:22;;;;;;;2.55;2.35;;;;;;;26.67;43.29;100062.00;5092252;28;20141;-77
2022/07/03 08:37:48;;;;;;;3.15;2.53;;;;;;;26.05;45.01;100070.38;5092009;28;20488;-77
2022/07/03 08:40:15;;;;;;;2.35;2.15;;;;;;;25.98;46.48;100072.00;5092002;28;20032;-81
2022/07/03 08:42:48;;;;;;;2.33;2.10;;;;;;;25.63;46.13;100065.78;5091782;28;20024;-77
2022/07/03 08:45:15;;;;;;;5.05;2.92;;;;;;;25.21;48.13;100063.88;5074072;28;20133;-77
2022/07/03 08:47:45;;;;;;;3.72;2.60;;;;;;;24.85;49.70;100050.53;5091637;28;20020;-77
2022/07/03 08:50:12;;;;;;;5.27;2.60;;;;;;;24.96;50.01;100056.63;5092077;28;20036;-77
2022/07/03 08:52:39;;;;;;;2.70;2.10;;;;;;;25.33;48.47;100059.13;5091807;28;20259;-77
2022/07/03 08:55:05;;;;;;;5.50;2.65;;;;;;;25.79;46.71;100065.91;5091892;28;20020;-77
2022/07/03 08:57:34;;;;;;;4.32;2.70;;;;;;;25.28;48.45;100064.06;5091578;28;20024;-77
2022/07/03 09:00:03;;;;;;;4.70;2.60;;;;;;;25.44;47.10;100058.84;5091996;28;20024;-77
2022/07/03 09:02:30;;;;;;;2.97;2.72;;;;;;;25.12;48.45;100051.47;5091605;28;20024;-77
2022/07/03 09:04:58;;;;;;;3.17;2.88;;;;;;;24.71;49.08;100047.59;5091760;28;20136;-77
2022/07/03 09:07:25;;;;;;;3.17;2.90;;;;;;;24.59;48.92;100054.97;5093388;28;20035;-77
2022/07/03 09:09:51;;;;;;;2.83;2.63;;;;;;;24.80;49.84;100049.34;5077437;28;20040;-77
2022/07/03 09:12:17;;;;;;;3.78;3.42;;;;;;;25.12;48.72;100040.81;5095610;28;20048;-77
2022/07/03 09:14:42;;;;;;;2.67;2.47;;;;;;;25.24;48.31;100036.91;5095829;28;20470;-77
2022/07/03 09:17:09;;;;;;;2.83;2.50;;;;;;;25.43;48.01;100025.16;5077651;28;20119;-77
2022/07/03 09:19:48;;;;;;;3.20;2.60;;;;;;;25.66;47.56;100027.28;5095519;28;20020;-79
2022/07/03 09:22:19;;;;;;;2.88;2.67;;;;;;;25.64;46.13;100035.44;5094400;28;20132;-82
2022/07/03 09:24:44;;;;;;;2.45;2.17;;;;;;;25.69;46.41;100035.81;5095655;28;20085;-78
2022/07/03 09:27:16;;;;;;;3.30;2.90;;;;;;;25.25;47.77;100030.56;5077453;28;20024;-78
2022/07/03 09:29:51;;;;;;;2.90;2.63;;;;;;;25.12;48.00;100024.81;5095535;28;20024;-78
2022/07/03 09:32:16;;;;;;;5.30;3.00;;;;;;;24.73;49.62;100018.97;5095625;28;20513;-77
2022/07/03 09:34:41;;;;;;;2.60;2.40;;;;;;;24.55;48.71;100025.13;5095242;28;20024;-77
2022/07/03 09:37:07;;;;;;;3.60;2.80;;;;;;;24.30;50.73;100020.53;5095401;28;20024;-77
2022/07/03 09:39:37;;;;;;;7.45;2.92;;;;;;;24.19;50.49;100012.75;5095499;28;20024;-77
2022/07/03 09:42:14;;;;;;;;;;;;;;;24.11;49.16;100021.50;5095914;28;20032;-77
2022/07/03 09:44:47;;;;;;;4.82;2.97;;;;;;;24.06;49.16;100011.31;5095108;28;19912;-77
2022/07/03 09:47:23;;;;;;;6.25;3.00;;;;;;;23.85;49.98;100029.31;5095136;28;20020;-77
2022/07/03 09:49:57;;;;;;;2.83;2.47;;;;;;;23.87;49.83;100022.06;5095152;28;20028;-77
2022/07/03 09:52:31;;;;;;;3.60;2.75;;;;;;;23.90;48.17;100013.78;5095534;28;20406;-77
2022/07/03 09:54:59;;;;;;;2.28;2.08;;;;;;;24.15;48.37;100010.41;5095060;28;20463;-77
2022/07/03 09:57:27;;;;;;;2.95;2.33;;;;;;;24.68;48.07;100011.44;5076845;28;20028;-77
2022/07/03 10:00:21;;;;;;;2.80;2.20;;;;;;;24.89;47.88;100019.09;5094671;28;20390;-77
2022/07/03 10:02:56;;;;;;;3.53;2.60;;;;;;;25.01;48.01;100009.88;5090901;28;20048;-77
2022/07/03 10:05:23;;;;;;;3.30;2.45;;;;;;;25.17;47.76;100005.69;5094816;28;20059;-77
2022/07/03 10:08:02;;;;;;;3.40;2.67;;;;;;;25.18;48.49;100004.69;5093912;28;20024;-77
2022/07/03 10:10:30;;;;;;;2.67;2.22;;;;;;;25.18;45.58;99999.34;5093443;28;20044;-77
2022/07/03 10:12:56;;;;;;;2.42;2.22;;;;;;;25.23;46.46;99999.72;5094673;28;20020;-77
2022/07/03 10:15:23;;;;;;;2.05;1.95;;;;;;;25.09;46.37;99995.81;5094639;28;20360;-77
2022/07/03 10:17:53;;;;;;;2.22;1.80;;;;;;;25.36;45.23;99984.94;5094225;28;20039;-77
2022/07/03 10:20:29;;;;;;;;;;;;;;;25.67;45.25;99989.78;5095043;28;20145;-78
2022/07/03 10:22:55;;;;;;;2.20;2.00;;;;;;;25.35;44.29;99993.97;5094270;28;19912;-77
2022/07/03 10:25:21;;;;;;;2.78;2.22;;;;;;;25.12;46.31;99988.34;5094647;28;20364;-77
2022/07/03 10:27:47;;;;;;;2.40;2.20;;;;;;;24.79;45.28;99973.91;5094243;28;20066;-77
2022/07/03 10:30:19;;;;;;;2.40;2.20;;;;;;;24.73;46.69;99977.19;5094395;28;20050;-78
2022/07/03 10:32:46;;;;;;;2.03;1.92;;;;;;;24.90;46.89;99967.47;5094136;28;20044;-77
2022/07/03 10:35:15;;;;;;;3.25;2.00;;;;;;;25.16;46.33;99962.22;5094206;28;20047;-77
2022/07/03 10:37:56;;;;;;;2.03;1.90;;;;;;;25.68;44.93;99963.94;5094191;28;20035;-77
2022/07/03 10:46:13;;;;;;;1.92;1.83;;;;;;;25.85;44.25;99950.53;5094450;28;20046;-77
2022/07/03 10:48:57;;;;;;;2.33;1.90;;;;;;;26.34;45.01;99958.63;5093989;28;20016;-77
2022/07/03 10:51:23;;;;;;;2.20;2.10;;;;;;;26.44;41.72;99947.81;5093707;28;20561;-77
2022/07/03 10:53:49;;;;;;;2.15;1.70;;;;;;;26.48;40.76;99945.66;5092983;28;20040;-77
2022/07/03 10:56:15;;;;;;;2.80;2.10;;;;;;;26.27;41.37;99944.25;5092452;28;20027;-77
2022/07/03 10:58:58;;;;;;;2.40;2.20;;;;;;;25.83;42.53;99955.19;5093614;28;20102;-77
2022/07/03 11:01:30;;;;;;;2.03;1.92;;;;;;;25.66;42.32;99949.91;5092611;28;20040;-77
2022/07/03 11:04:01;;;;;;;1.85;1.70;;;;;;;25.76;42.55;99940.78;5093405;28;20016;-77
2022/07/03 11:06:56;;;;;;;1.75;1.65;;;;;;;25.69;43.43;99941.59;5093407;28;20107;-77
2022/07/03 11:09:22;;;;;;;1.83;1.73;;;;;;;25.57;43.17;99947.22;4991667;28;20117;-77
2022/07/03 11:11:57;;;;;;;1.80;1.70;;;;;;;25.52;43.37;99925.53;4991351;28;20046;-77
2022/07/03 11:14:27;;;;;;;3.30;2.10;;;;;;;25.83;44.07;99941.00;4991450;28;20117;-77
2022/07/03 11:17:19;;;;;;;2.17;1.92;;;;;;;26.00;43.51;99934.72;4990645;28;20061;-78
2022/07/03 11:20:23;;;;;;;2.90;1.95;;;;;;;26.17;44.09;99932.06;4991221;28;20040;-78
2022/07/03 11:23:21;;;;;;;2.10;1.95;;;;;;;26.12;42.89;99922.72;4991469;28;20409;-77
2022/07/03 11:25:48;;;;;;;2.13;1.92;;;;;;;25.82;43.91;99924.16;4858060;29;20083;-78
2022/07/03 11:28:32;;;;;;;3.88;1.67;;;;;;;25.87;44.04;99926.34;4858283;29;20046;-78
2022/07/03 11:31:18;;;;;;;2.20;2.00;;;;;;;26.25;44.21;99922.25;4857505;29;20322;-77
2022/07/03 11:33:47;;;;;;;1.90;1.80;;;;;;;26.38;43.37;99922.59;4858002;29;20045;-77
2022/07/03 11:36:16;;;;;;;1.50;1.40;;;;;;;26.61;43.27;99913.91;4858220;29;20037;-77
2022/07/03 11:38:52;;;;;;;2.33;2.13;;;;;;;26.62;41.47;99916.41;4858028;29;20210;-77
2022/07/03 11:41:18;;;;;;;2.20;2.00;;;;;;;26.60;42.81;99912.25;4858254;29;20044;-77
2022/07/03 11:43:47;;;;;;;2.22;1.90;;;;;;;26.21;41.49;99904.88;4857783;29;20034;-78